Time;durP1;ratioP1;P1;durP2;ratioP2;P2;SDS_P1;SDS_P2;PMS_P1;PMS_P2;Temp;Humidity;BMP_temperature;BMP_pressure;BME280_temperature;BME280_humidity;BME280_pressure;Samples;Min_cycle;Max_cycle;Signal;HPM_P1;HPM_P2
2024/01/20 00:02:15;;;;;;;6.95;1.48;;;25.40;68.50;;;;;;5076421;28;20047;-86
2024/01/20 00:04:42;;;;;;;6.95;1.80;;;25.40;68.50;;;;;;5093214;28;20039;-86
2024/01/20 00:07:10;;;;;;;5.95;1.75;;;25.40;67.90;;;;;;5072469;28;20483;-87
2024/01/20 00:09:37;;;;;;;8.13;1.50;;;25.40;68.30;;;;;;5080157;28;20483;-87
2024/01/20 00:12:06;;;;;;;7.93;1.58;;;25.30;68.40;;;;;;5073142;28;20029;-80
2024/01/20 00:14:34;;;;;;;5.43;1.40;;;25.30;68.20;;;;;;5080331;28;20039;-80
2024/01/20 00:17:03;;;;;;;5.63;1.92;;;25.30;68.50;;;;;;5072143;28;20060;-85
2024/01/20 00:19:31;;;;;;;5.40;1.50;;;25.30;68.40;;;;;;5073135;28;20334;-87
2024/01/20 00:21:58;;;;;;;5.60;1.40;;;25.40;67.90;;;;;;5087948;28;20027;-85
2024/01/20 00:24:25;;;;;;;6.95;1.77;;;25.40;67.80;;;;;;5088008;28;20036;-87
2024/01/20 00:26:53;;;;;;;7.47;1.63;;;25.50;68.10;;;;;;5092795;28;20023;-88
2024/01/20 00:29:20;;;;;;;7.28;1.85;;;25.50;68.20;;;;;;5081348;28;20024;-87
2024/01/20 00:31:48;;;;;;;7.35;1.40;;;25.50;68.30;;;;;;5074294;28;20487;-87
2024/01/20 00:34:15;;;;;;;8.15;1.63;;;25.50;68.10;;;;;;5092832;28;20083;-89
2024/01/20 00:36:43;;;;;;;7.50;1.60;;;25.50;67.90;;;;;;5086396;28;20021;-86
2024/01/20 00:39:10;;;;;;;6.97;1.80;;;25.50;68.10;;;;;;5086499;28;20032;-87
2024/01/20 00:41:38;;;;;;;10.55;1.67;;;25.40;68.20;;;;;;5083592;28;20375;-81
2024/01/20 00:44:05;;;;;;;6.18;1.90;;;25.40;68.10;;;;;;5072319;28;20097;-89
2024/01/20 00:46:32;;;;;;;4.40;1.63;;;25.50;68.30;;;;;;5073760;28;20066;-85
2024/01/20 00:49:00;;;;;;;5.80;1.50;;;25.60;68.60;;;;;;5076204;28;20104;-86
2024/01/20 00:51:27;;;;;;;6.85;2.05;;;25.60;68.20;;;;;;5088241;28;20037;-87
2024/01/20 00:53:54;;;;;;;7.18;1.95;;;25.60;68.10;;;;;;5089275;28;20028;-88
2024/01/20 00:56:22;;;;;;;9.07;2.13;;;25.60;68.20;;;;;;5083693;28;20020;-87
2024/01/20 00:58:49;;;;;;;7.80;1.85;;;25.70;67.60;;;;;;5069411;28;20031;-82
2024/01/20 01:01:16;;;;;;;4.18;1.90;;;25.70;67.50;;;;;;5087734;28;20019;-86
2024/01/20 01:03:44;;;;;;;5.93;2.08;;;25.70;67.80;;;;;;5081052;28;20032;-87
2024/01/20 01:06:11;;;;;;;8.30;2.03;;;25.70;68.00;;;;;;5082985;28;20044;-86
2024/01/20 01:08:39;;;;;;;20.05;2.20;;;25.80;68.20;;;;;;5076427;28;20382;-87
2024/01/20 01:11:06;;;;;;;12.25;2.25;;;25.80;67.60;;;;;;5075471;28;20383;-87
2024/01/20 01:13:36;;;;;;;5.70;1.35;;;25.70;67.50;;;;;;5075500;28;20467;-88
2024/01/20 01:16:05;;;;;;;7.65;2.20;;;25.70;67.20;;;;;;5076895;28;20491;-87
2024/01/20 01:18:33;;;;;;;7.63;1.50;;;25.80;67.00;;;;;;5081559;28;20016;-85
2024/01/20 01:21:00;;;;;;;8.82;2.30;;;25.70;67.00;;;;;;5080696;28;20075;-87
2024/01/20 01:23:28;;;;;;;7.45;2.20;;;25.70;66.80;;;;;;5080830;28;20035;-87
2024/01/20 01:25:55;;;;;;;8.02;2.17;;;25.80;67.00;;;;;;5076692;28;20036;-86
2024/01/20 01:28:22;;;;;;;8.80;1.77;;;25.70;66.60;;;;;;5058506;28;20119;-87
2024/01/20 01:30:50;;;;;;;7.28;1.92;;;25.70;66.20;;;;;;5059453;28;20087;-87
2024/01/20 01:33:17;;;;;;;8.70;1.70;;;25.70;66.60;;;;;;5076616;28;20490;-88
2024/01/20 01:35:44;;;;;;;7.32;1.88;;;25.70;66.30;;;;;;5075372;28;20016;-88
2024/01/20 01:38:12;;;;;;;7.78;1.80;;;25.60;66.70;;;;;;5079039;28;20044;-87
2024/01/20 01:40:39;;;;;;;6.75;1.70;;;25.60;67.00;;;;;;5088332;28;20031;-87
2024/01/20 01:43:08;;;;;;;7.28;2.25;;;25.60;67.20;;;;;;5061675;28;20024;-87
2024/01/20 01:45:35;;;;;;;8.88;2.00;;;25.50;67.20;;;;;;5074768;28;20476;-87
2024/01/20 01:48:02;;;;;;;7.38;2.10;;;25.50;67.20;;;;;;5073550;28;20033;-88
2024/01/20 01:50:30;;;;;;;5.35;1.90;;;25.50;67.60;;;;;;5073528;28;20072;-89
2024/01/20 01:52:58;;;;;;;7.90;1.90;;;25.50;67.60;;;;;;5061649;28;20410;-89
2024/01/20 01:55:26;;;;;;;6.88;2.15;;;25.50;67.40;;;;;;5079058;28;20032;-84
2024/01/20 01:57:56;;;;;;;9.80;2.10;;;25.50;67.70;;;;;;5086283;28;20025;-86
2024/01/20 02:00:23;;;;;;;6.07;1.90;;;25.50;67.00;;;;;;5073215;28;20016;-86
2024/01/20 02:02:51;;;;;;;8.20;2.10;;;25.50;67.00;;;;;;5081898;28;20031;-88
2024/01/20 02:05:18;;;;;;;9.35;2.10;;;25.40;66.80;;;;;;5085881;28;20032;-81
2024/01/20 02:07:48;;;;;;;5.88;1.75;;;25.50;67.10;;;;;;5081595;28;20028;-81
2024/01/20 02:10:19;;;;;;;6.72;2.00;;;25.40;67.40;;;;;;5092079;28;20436;-83
2024/01/20 02:12:47;;;;;;;7.90;2.00;;;25.40;67.20;;;;;;5084900;28;20037;-86
2024/01/20 02:15:14;;;;;;;11.48;1.67;;;25.40;67.40;;;;;;5090691;28;20032;-87
2024/01/20 02:17:52;;;;;;;7.22;1.52;;;25.50;67.40;;;;;;5086249;28;20031;-82
2024/01/20 02:20:20;;;;;;;11.90;2.28;;;25.40;67.40;;;;;;5072347;28;20025;-87
2024/01/20 02:22:48;;;;;;;7.28;1.60;;;25.50;67.40;;;;;;5086159;28;20073;-87
2024/01/20 02:25:15;;;;;;;5.32;1.60;;;25.60;66.90;;;;;;5089087;28;20513;-89
2024/01/20 02:27:43;;;;;;;9.10;1.92;;;25.50;66.90;;;;;;5091300;28;20023;-87
2024/01/20 02:30:10;;;;;;;6.97;1.90;;;25.50;67.10;;;;;;5082733;28;20024;-87
2024/01/20 02:32:38;;;;;;;8.25;2.13;;;25.50;67.40;;;;;;5093289;28;20104;-87
2024/01/20 02:35:06;;;;;;;7.82;2.47;;;25.50;67.70;;;;;;5077468;28;20479;-88
2024/01/20 02:37:33;;;;;;;6.70;2.25;;;25.50;67.50;;;;;;5083405;28;20028;-87
2024/01/20 02:40:00;;;;;;;9.35;1.95;;;25.50;67.50;;;;;;5087863;28;20028;-84
2024/01/20 02:42:28;;;;;;;7.57;1.60;;;25.60;66.80;;;;;;5085816;28;20423;-85
2024/01/20 02:44:55;;;;;;;6.70;1.52;;;25.60;67.10;;;;;;5091647;28;20032;-87
2024/01/20 02:47:24;;;;;;;5.95;1.55;;;25.50;67.30;;;;;;5091257;28;20371;-86
2024/01/20 02:49:51;;;;;;;6.28;1.40;;;25.60;67.10;;;;;;5094302;28;20559;-87
2024/01/20 02:52:18;;;;;;;7.07;1.80;;;25.60;67.30;;;;;;5089635;28;20031;-87
2024/01/20 02:54:47;;;;;;;6.50;1.92;;;25.60;67.40;;;;;;5075413;28;20111;-87
2024/01/20 02:57:14;;;;;;;10.10;1.85;;;25.60;67.30;;;;;;5091013;28;20039;-85
2024/01/20 02:59:42;;;;;;;7.57;2.15;;;25.60;66.80;;;;;;5071164;28;20065;-83
2024/01/20 03:02:09;;;;;;;8.32;2.40;;;25.50;67.20;;;;;;5074097;28;20424;-87
2024/01/20 03:04:36;;;;;;;11.35;2.20;;;25.60;67.20;;;;;;5073550;28;20044;-83
2024/01/20 03:07:04;;;;;;;6.03;1.60;;;25.50;67.10;;;;;;5074177;28;20020;-86
2024/01/20 03:09:31;;;;;;;9.38;2.00;;;25.60;67.00;;;;;;5072582;28;20510;-87
2024/01/20 03:11:59;;;;;;;8.60;2.10;;;25.60;67.40;;;;;;5073208;28;20021;-86
2024/01/20 03:14:26;;;;;;;9.30;1.88;;;25.70;67.50;;;;;;5073404;28;20094;-82
2024/01/20 03:16:53;;;;;;;8.15;1.98;;;25.70;67.30;;;;;;5073502;28;20106;-88
2024/01/20 03:19:21;;;;;;;11.40;1.95;;;25.70;67.20;;;;;;5078633;28;20030;-85
2024/01/20 03:21:49;;;;;;;6.05;1.65;;;25.70;67.40;;;;;;5072526;28;20028;-88
2024/01/20 03:24:19;;;;;;;10.63;2.13;;;25.80;67.20;;;;;;5072876;28;20051;-81
2024/01/20 03:26:47;;;;;;;6.68;1.55;;;25.70;66.90;;;;;;5072901;28;20044;-84
2024/01/20 03:29:14;;;;;;;7.80;1.90;;;25.80;67.10;;;;;;5093119;28;20024;-83
2024/01/20 03:31:42;;;;;;;11.77;2.55;;;25.70;67.00;;;;;;5074886;28;20629;-81
2024/01/20 03:34:13;;;;;;;6.10;1.98;;;25.70;67.30;;;;;;5079237;28;20028;-87
2024/01/20 03:36:40;;;;;;;12.07;2.78;;;25.80;67.30;;;;;;5072542;28;20028;-81
2024/01/20 03:39:08;;;;;;;6.72;1.67;;;25.70;67.10;;;;;;5073685;28;20027;-86
2024/01/20 03:41:35;;;;;;;9.23;2.20;;;25.70;67.30;;;;;;5070931;28;20491;-85
2024/01/20 03:44:02;;;;;;;7.15;2.17;;;25.70;67.50;;;;;;5084643;28;20043;-85
2024/01/20 03:46:30;;;;;;;5.22;1.58;;;25.70;67.20;;;;;;5083091;28;20104;-83
2024/01/20 03:48:57;;;;;;;8.52;1.55;;;25.60;67.20;;;;;;5073913;28;20047;-86
2024/01/20 03:51:26;;;;;;;5.68;1.83;;;25.70;67.30;;;;;;5076592;28;20048;-87
2024/01/20 03:53:54;;;;;;;7.35;1.95;;;25.70;67.70;;;;;;5081708;28;20030;-83
2024/01/20 03:56:21;;;;;;;7.10;1.70;;;25.80;67.40;;;;;;5072298;28;20044;-79
2024/01/20 03:58:49;;;;;;;7.60;1.77;;;25.80;66.60;;;;;;5073113;28;20522;-86
2024/01/20 04:01:16;;;;;;;13.50;2.30;;;25.80;66.20;;;;;;5080657;28;20037;-87
2024/01/20 04:03:44;;;;;;;8.70;1.70;;;25.80;66.50;;;;;;5072022;28;20105;-86
2024/01/20 04:06:11;;;;;;;7.72;1.80;;;25.70;66.90;;;;;;5070471;28;20028;-87
2024/01/20 04:08:42;;;;;;;5.70;1.58;;;25.80;66.80;;;;;;5072106;28;20101;-87
2024/01/20 04:11:09;;;;;;;5.47;1.70;;;25.80;66.40;;;;;;5073518;28;20020;-88
2024/01/20 04:13:36;;;;;;;6.97;1.65;;;25.80;66.70;;;;;;5072961;28;20529;-86
2024/01/20 04:16:04;;;;;;;6.03;1.75;;;25.80;67.20;;;;;;5072155;28;20037;-87
2024/01/20 04:18:31;;;;;;;11.10;1.58;;;25.70;66.90;;;;;;5073887;28;20028;-88
2024/01/20 04:20:59;;;;;;;7.15;1.48;;;25.80;67.10;;;;;;5077998;28;20028;-86
2024/01/20 04:23:26;;;;;;;7.53;1.77;;;25.80;67.60;;;;;;5085908;28;20032;-84
2024/01/20 04:25:53;;;;;;;5.97;1.42;;;25.90;67.30;;;;;;5076700;28;20016;-83
2024/01/20 04:28:21;;;;;;;9.18;2.20;;;26.00;67.50;;;;;;5077950;28;20036;-81
2024/01/20 04:30:48;;;;;;;8.02;1.83;;;26.00;67.10;;;;;;5075071;28;20028;-87
2024/01/20 04:33:15;;;;;;;10.38;1.60;;;26.10;67.30;;;;;;5075413;28;20476;-87
2024/01/20 04:35:43;;;;;;;6.20;1.35;;;26.10;67.10;;;;;;5082236;28;20029;-85
2024/01/20 04:38:10;;;;;;;6.40;1.55;;;26.30;66.90;;;;;;5076067;28;20021;-88
2024/01/20 04:40:37;;;;;;;7.68;2.10;;;26.30;66.60;;;;;;5086559;28;20521;-84
2024/01/20 04:43:05;;;;;;;8.60;1.80;;;26.40;66.70;;;;;;5078909;28;20055;-88
2024/01/20 04:45:32;;;;;;;4.43;1.80;;;26.40;66.30;;;;;;5095606;28;20083;-86
2024/01/20 04:47:59;;;;;;;8.00;1.67;;;26.40;66.30;;;;;;5100696;28;20021;-87
2024/01/20 04:50:27;;;;;;;10.00;1.90;;;26.50;66.70;;;;;;5084316;28;20034;-87
2024/01/20 04:52:54;;;;;;;5.22;1.70;;;26.50;66.70;;;;;;5095120;28;20024;-83
2024/01/20 04:55:22;;;;;;;7.63;1.77;;;26.60;66.40;;;;;;5092513;28;20060;-84
2024/01/20 04:57:49;;;;;;;4.75;1.38;;;26.70;66.20;;;;;;5084294;28;20024;-83
2024/01/20 05:00:16;;;;;;;8.10;1.92;;;26.70;66.10;;;;;;5084312;28;20025;-86
2024/01/20 05:02:44;;;;;;;4.97;1.75;;;26.80;65.80;;;;;;5085698;28;20078;-87
2024/01/20 05:05:11;;;;;;;7.80;1.35;;;26.80;65.20;;;;;;5076818;28;20088;-84
2024/01/20 05:07:38;;;;;;;7.97;1.50;;;26.80;65.70;;;;;;5076577;28;20027;-89
2024/01/20 05:10:06;;;;;;;6.38;1.50;;;26.70;65.60;;;;;;5075941;28;20029;-88
2024/01/20 05:12:34;;;;;;;7.20;1.80;;;26.70;65.80;;;;;;5083794;28;20031;-86
2024/01/20 05:15:01;;;;;;;8.30;2.28;;;26.60;65.70;;;;;;5085616;28;20158;-88
2024/01/20 05:17:28;;;;;;;5.75;1.20;;;26.50;65.50;;;;;;5074755;28;20474;-86
2024/01/20 05:19:56;;;;;;;7.40;1.90;;;26.40;65.70;;;;;;5084741;28;20036;-84
2024/01/20 05:22:23;;;;;;;7.82;1.75;;;26.30;65.80;;;;;;5084557;28;20035;-89
2024/01/20 05:24:54;;;;;;;9.43;2.15;;;26.30;66.10;;;;;;5081077;28;20036;-88
2024/01/20 05:27:22;;;;;;;8.52;2.30;;;26.30;66.30;;;;;;5074716;28;20070;-86
2024/01/20 05:29:52;;;;;;;8.15;1.92;;;26.30;66.50;;;;;;5080687;28;20046;-87
2024/01/20 05:32:19;;;;;;;10.82;2.63;;;26.20;66.60;;;;;;5054504;28;20017;-81
2024/01/20 05:34:47;;;;;;;8.45;1.50;;;26.20;66.50;;;;;;5065404;28;20035;-86
2024/01/20 05:37:14;;;;;;;10.18;2.10;;;26.20;66.60;;;;;;5080997;28;20077;-82
2024/01/20 05:39:42;;;;;;;9.00;2.08;;;26.20;67.00;;;;;;5085749;28;20045;-84
2024/01/20 05:42:09;;;;;;;12.40;1.88;;;26.30;67.20;;;;;;5057275;28;20016;-88
2024/01/20 05:44:36;;;;;;;6.57;1.73;;;26.30;67.30;;;;;;5089237;28;20037;-89
2024/01/20 05:47:04;;;;;;;9.25;1.85;;;26.30;67.20;;;;;;5090638;28;20371;-86
2024/01/20 05:49:31;;;;;;;7.63;1.50;;;26.40;67.40;;;;;;5091767;28;20028;-89
2024/01/20 05:51:58;;;;;;;7.07;1.60;;;26.50;67.20;;;;;;5074939;28;20533;-87
2024/01/20 05:54:26;;;;;;;10.57;1.80;;;26.60;66.70;;;;;;5073576;28;20024;-85
2024/01/20 05:56:54;;;;;;;5.90;1.42;;;26.60;66.60;;;;;;5085398;28;20021;-88
2024/01/20 05:59:21;;;;;;;6.57;1.70;;;26.60;66.80;;;;;;5073991;28;20498;-81
2024/01/20 06:01:50;;;;;;;7.35;1.67;;;26.60;66.80;;;;;;5076707;28;20036;-87
2024/01/20 06:04:18;;;;;;;11.70;1.63;;;26.60;66.70;;;;;;5089270;28;20119;-84
2024/01/20 06:06:47;;;;;;;7.53;1.42;;;26.70;66.80;;;;;;5092875;28;20032;-87
2024/01/20 06:09:14;;;;;;;11.18;2.30;;;26.70;66.70;;;;;;5083672;28;20032;-87
2024/01/20 06:11:42;;;;;;;6.45;1.60;;;26.70;66.80;;;;;;5090931;28;20024;-83
2024/01/20 06:14:09;;;;;;;9.27;2.00;;;26.70;67.10;;;;;;5088426;28;20394;-83
2024/01/20 06:16:41;;;;;;;7.25;1.75;;;26.70;67.00;;;;;;4976275;28;2824250;-85
2024/01/20 06:19:09;;;;;;;5.72;1.52;;;26.80;66.60;;;;;;5089818;28;20383;-87
2024/01/20 06:21:36;;;;;;;6.60;1.45;;;26.70;66.50;;;;;;5065236;28;20103;-86
2024/01/20 06:24:04;;;;;;;8.98;1.83;;;26.70;66.30;;;;;;5088082;28;20020;-83
2024/01/20 06:26:32;;;;;;;10.15;2.55;;;26.60;66.50;;;;;;5091809;28;20024;-88
2024/01/20 06:28:59;;;;;;;9.02;1.85;;;26.50;66.90;;;;;;5056060;28;20104;-87
2024/01/20 06:31:28;;;;;;;3.58;1.35;;;26.50;67.10;;;;;;5066836;28;20047;-86
2024/01/20 06:33:55;;;;;;;7.70;1.80;;;26.40;67.30;;;;;;5073947;28;20025;-87
2024/01/20 06:36:26;;;;;;;8.93;1.70;;;26.30;67.40;;;;;;5079787;28;20013;-89
2024/01/20 06:38:55;;;;;;;7.93;2.05;;;26.30;67.70;;;;;;5076698;28;20120;-88
2024/01/20 06:41:22;;;;;;;7.68;1.75;;;26.30;68.00;;;;;;5084764;28;20357;-89
2024/01/20 06:43:49;;;;;;;9.52;2.13;;;26.30;67.70;;;;;;5072982;28;20029;-88
2024/01/20 06:46:17;;;;;;;8.63;1.95;;;26.20;68.10;;;;;;5072053;28;20024;-87
2024/01/20 06:48:44;;;;;;;9.63;1.73;;;26.10;68.50;;;;;;5092077;28;20031;-86
2024/01/20 06:51:14;;;;;;;7.10;1.70;;;26.10;68.80;;;;;;5081833;28;20024;-89
2024/01/20 06:53:45;;;;;;;9.10;2.28;;;26.10;69.00;;;;;;5078876;28;20444;-83
2024/01/20 06:56:12;;;;;;;5.55;1.27;;;26.10;69.10;;;;;;5089728;28;20084;-89
2024/01/20 06:58:40;;;;;;;8.88;2.05;;;26.10;69.20;;;;;;5072861;28;20029;-84
2024/01/20 07:01:07;;;;;;;8.68;2.10;;;26.20;69.30;;;;;;5077872;28;20069;-89
2024/01/20 07:03:34;;;;;;;8.45;1.92;;;26.30;68.90;;;;;;5076462;28;20069;-87
2024/01/20 07:06:02;;;;;;;9.32;1.92;;;26.30;69.00;;;;;;5076084;28;20391;-88
2024/01/20 07:08:30;;;;;;;13.40;2.40;;;26.30;69.20;;;;;;5076751;28;20032;-89
2024/01/20 07:10:57;;;;;;;5.80;1.70;;;26.40;69.00;;;;;;5091770;28;20031;-88
2024/01/20 07:13:25;;;;;;;11.52;3.00;;;26.40;68.90;;;;;;5081096;28;20475;-83
2024/01/20 07:15:54;;;;;;;8.98;2.40;;;26.30;69.10;;;;;;5090347;28;20078;-84
2024/01/20 07:18:21;;;;;;;8.55;2.22;;;26.30;69.10;;;;;;5081180;28;20039;-88
2024/01/20 07:20:48;;;;;;;8.63;2.33;;;26.30;69.10;;;;;;5073442;28;20020;-87
2024/01/20 07:23:17;;;;;;;8.48;1.90;;;26.30;69.50;;;;;;5086326;28;20028;-84
2024/01/20 07:25:44;;;;;;;6.47;1.48;;;26.40;69.20;;;;;;5075754;28;20048;-79
2024/01/20 07:28:11;;;;;;;8.30;1.90;;;26.40;68.80;;;;;;5083808;28;20115;-88
2024/01/20 07:30:39;;;;;;;10.63;2.00;;;26.40;68.90;;;;;;5076477;28;20596;-83
2024/01/20 07:33:06;;;;;;;11.20;1.90;;;26.30;69.20;;;;;;5091516;28;20069;-86
2024/01/20 07:35:33;;;;;;;8.95;2.35;;;26.40;69.30;;;;;;5073179;28;20025;-88
2024/01/20 07:38:01;;;;;;;7.70;2.20;;;26.30;69.20;;;;;;5074420;28;20078;-88
2024/01/20 07:40:28;;;;;;;10.95;2.30;;;26.30;69.30;;;;;;5086593;28;20101;-88
2024/01/20 07:42:56;;;;;;;7.47;2.50;;;26.30;69.50;;;;;;5077856;28;20634;-87
2024/01/20 07:45:26;;;;;;;9.95;2.25;;;26.30;69.50;;;;;;5072683;28;20483;-89
2024/01/20 07:47:54;;;;;;;9.07;2.40;;;26.30;69.70;;;;;;5072661;28;20043;-88
2024/01/20 07:50:21;;;;;;;9.95;2.30;;;26.30;69.70;;;;;;5072324;28;20112;-88
2024/01/20 07:52:48;;;;;;;10.27;1.90;;;26.20;69.80;;;;;;5075983;28;20028;-87
2024/01/20 07:55:17;;;;;;;11.95;2.42;;;26.20;70.00;;;;;;5072589;28;20388;-87
2024/01/20 07:57:44;;;;;;;7.55;2.10;;;26.20;70.00;;;;;;5073496;28;20103;-83
2024/01/20 08:00:13;;;;;;;10.48;2.20;;;26.20;70.10;;;;;;5092199;28;20024;-86
2024/01/20 08:02:40;;;;;;;7.28;1.90;;;26.20;69.60;;;;;;5087638;28;20028;-88
2024/01/20 08:05:08;;;;;;;8.25;2.13;;;26.20;69.80;;;;;;5073929;28;20052;-89
2024/01/20 08:07:35;;;;;;;15.10;2.33;;;26.10;70.00;;;;;;5072810;28;20050;-86
2024/01/20 08:10:02;;;;;;;10.50;1.95;;;26.10;70.20;;;;;;5080344;28;20530;-88
2024/01/20 08:12:30;;;;;;;7.25;2.35;;;26.10;70.40;;;;;;5076884;28;20093;-87
2024/01/20 08:14:57;;;;;;;5.82;2.30;;;26.00;70.30;;;;;;5077107;28;20040;-87
2024/01/20 08:17:24;;;;;;;5.68;2.17;;;25.90;70.40;;;;;;5091204;28;20032;-80
2024/01/20 08:19:56;;;;;;;9.77;2.13;;;25.90;70.50;;;;;;5089848;28;20033;-85
2024/01/20 08:22:23;;;;;;;13.45;2.20;;;25.80;70.70;;;;;;5099383;28;20077;-87
2024/01/20 08:24:50;;;;;;;8.30;2.40;;;25.80;70.90;;;;;;5064989;28;20044;-85
2024/01/20 08:27:18;;;;;;;6.95;2.38;;;25.80;70.70;;;;;;5077456;28;20043;-88
2024/01/20 08:29:46;;;;;;;7.28;2.20;;;25.70;71.20;;;;;;5078752;28;20249;-85
2024/01/20 08:32:13;;;;;;;7.10;2.05;;;25.70;71.00;;;;;;5090143;28;20654;-89
2024/01/20 08:34:40;;;;;;;7.03;2.10;;;25.60;71.20;;;;;;5089383;28;20032;-88
2024/01/20 08:37:08;;;;;;;7.22;2.30;;;25.70;71.20;;;;;;5091941;28;20040;-88
2024/01/20 08:39:35;;;;;;;8.50;2.47;;;25.60;71.20;;;;;;5097218;28;20016;-88
2024/01/20 08:42:03;;;;;;;11.88;2.20;;;25.50;71.50;;;;;;5097840;28;20012;-80
2024/01/20 08:44:32;;;;;;;11.02;2.65;;;25.50;71.20;;;;;;5103603;28;20032;-88
2024/01/20 08:46:59;;;;;;;8.82;2.10;;;25.50;71.30;;;;;;5103949;28;20024;-83
2024/01/20 08:49:39;;;;;;;10.93;1.83;;;25.40;71.50;;;;;;5100186;28;20039;-80
2024/01/20 08:52:08;;;;;;;9.20;2.22;;;25.40;71.50;;;;;;5080439;28;20024;-87
2024/01/20 08:54:37;;;;;;;9.38;2.00;;;25.40;71.50;;;;;;5091222;28;20103;-86
2024/01/20 08:57:04;;;;;;;10.35;2.00;;;25.30;71.50;;;;;;5089251;28;20017;-83
2024/01/20 08:59:32;;;;;;;12.20;2.72;;;25.30;71.30;;;;;;5092779;28;20024;-88
2024/01/20 09:02:00;;;;;;;7.72;1.90;;;25.30;71.60;;;;;;5080331;28;20024;-88
2024/01/20 09:04:27;;;;;;;11.80;2.40;;;25.30;71.50;;;;;;5073304;28;20059;-88
2024/01/20 09:06:54;;;;;;;5.93;1.75;;;25.20;71.80;;;;;;5083843;28;20024;-86
2024/01/20 09:09:22;;;;;;;11.18;2.50;;;25.20;72.00;;;;;;5089721;28;20032;-88
2024/01/20 09:11:49;;;;;;;10.73;2.65;;;25.20;72.10;;;;;;5075142;28;20028;-88
2024/01/20 09:14:17;;;;;;;11.75;2.22;;;25.20;72.30;;;;;;5075792;28;20028;-81
2024/01/20 09:16:44;;;;;;;14.80;2.47;;;25.10;72.60;;;;;;5091012;28;20399;-87
2024/01/20 09:19:11;;;;;;;7.15;1.80;;;25.10;72.50;;;;;;5076556;28;20025;-89
2024/01/20 09:21:39;;;;;;;7.18;1.75;;;25.10;72.90;;;;;;5084503;28;20025;-88
2024/01/20 09:24:06;;;;;;;11.70;2.20;;;25.00;72.80;;;;;;5075177;28;20039;-87
2024/01/20 09:26:33;;;;;;;7.07;1.85;;;25.00;73.10;;;;;;5075829;28;20074;-81
2024/01/20 09:29:01;;;;;;;11.25;2.28;;;25.00;72.70;;;;;;5079551;28;20027;-88
2024/01/20 09:31:29;;;;;;;8.63;2.20;;;25.10;72.80;;;;;;5084551;28;20352;-89
2024/01/20 09:33:56;;;;;;;12.65;2.25;;;25.00;72.90;;;;;;5094177;28;20020;-87
2024/01/20 09:36:24;;;;;;;6.95;2.15;;;25.00;73.00;;;;;;5089905;28;20427;-82
2024/01/20 09:38:51;;;;;;;11.88;2.13;;;25.00;73.30;;;;;;5075160;28;20379;-87
2024/01/20 09:41:19;;;;;;;8.85;2.30;;;25.00;73.20;;;;;;5076946;28;20116;-87
2024/01/20 09:43:48;;;;;;;10.32;2.05;;;24.90;73.30;;;;;;5088124;28;20036;-83
2024/01/20 09:46:18;;;;;;;6.38;1.90;;;24.90;73.40;;;;;;5075519;28;20073;-88
2024/01/20 09:48:50;;;;;;;10.73;2.08;;;24.90;73.60;;;;;;5084414;28;20017;-89
2024/01/20 09:51:24;;;;;;;11.60;2.55;;;24.80;73.70;;;;;;5082812;28;20024;-88
2024/01/20 09:54:00;;;;;;;8.80;2.70;;;24.80;73.80;;;;;;5087416;28;20056;-87
2024/01/20 09:56:29;;;;;;;7.55;2.00;;;24.90;73.80;;;;;;5087384;28;20054;-89
2024/01/20 09:59:01;;;;;;;10.73;2.22;;;24.80;73.80;;;;;;5089663;28;20097;-81
2024/01/20 10:01:29;;;;;;;10.18;2.15;;;24.90;73.90;;;;;;5092702;28;20502;-84
2024/01/20 10:04:01;;;;;;;11.93;2.38;;;24.80;73.90;;;;;;5093593;28;20036;-86
2024/01/20 10:06:28;;;;;;;6.68;1.83;;;24.80;74.20;;;;;;5086606;28;20024;-88
2024/01/20 10:08:56;;;;;;;7.78;2.42;;;24.80;74.10;;;;;;5095421;28;20042;-88
2024/01/20 10:11:23;;;;;;;11.60;2.10;;;24.80;74.20;;;;;;5082644;28;20035;-82
2024/01/20 10:13:50;;;;;;;15.00;2.65;;;24.80;74.30;;;;;;5087039;28;20021;-88
2024/01/20 10:16:20;;;;;;;13.63;3.72;;;24.80;74.30;;;;;;5092217;28;20048;-88
2024/01/20 10:18:47;;;;;;;9.82;4.60;;;24.80;74.50;;;;;;5094314;28;20020;-87
2024/01/20 10:21:14;;;;;;;11.60;5.72;;;24.80;74.80;;;;;;5094648;28;20024;-88
2024/01/20 10:23:42;;;;;;;13.93;6.47;;;24.80;74.50;;;;;;5088357;28;20142;-87
2024/01/20 10:26:09;;;;;;;11.77;5.57;;;24.80;74.60;;;;;;5082731;28;20107;-87
2024/01/20 10:28:37;;;;;;;15.70;5.35;;;24.80;74.70;;;;;;5076548;28;20023;-85
2024/01/20 10:31:08;;;;;;;12.43;6.00;;;24.80;74.80;;;;;;5091017;28;20032;-88
2024/01/20 10:33:37;;;;;;;13.43;7.47;;;24.80;74.90;;;;;;5093552;28;20024;-87
2024/01/20 10:36:05;;;;;;;13.63;6.68;;;24.80;74.90;;;;;;5091847;28;20056;-86
2024/01/20 10:38:38;;;;;;;12.40;6.07;;;24.80;75.20;;;;;;5094361;28;20091;-84
2024/01/20 10:41:08;;;;;;;14.43;4.85;;;24.80;75.10;;;;;;5076190;28;20365;-88
2024/01/20 10:43:41;;;;;;;11.63;4.13;;;24.70;75.20;;;;;;5085759;28;20082;-85
2024/01/20 10:46:39;;;;;;;6.90;3.03;;;24.70;75.30;;;;;;5089647;28;20028;-82
2024/01/20 10:49:11;;;;;;;7.78;2.92;;;24.70;75.40;;;;;;5060682;28;20128;-82
2024/01/20 10:51:39;;;;;;;13.80;4.05;;;24.70;75.40;;;;;;5084144;28;20471;-88
2024/01/20 10:54:08;;;;;;;12.13;2.65;;;24.70;75.40;;;;;;5077852;28;20450;-85
2024/01/20 10:56:37;;;;;;;8.73;3.10;;;24.70;75.70;;;;;;5079211;28;20047;-79
2024/01/20 10:59:18;;;;;;;9.77;2.50;;;24.70;75.50;;;;;;5075244;28;20107;-84
2024/01/20 11:01:47;;;;;;;13.38;2.95;;;24.70;75.70;;;;;;5076645;28;20016;-83
2024/01/20 11:04:20;;;;;;;6.78;2.30;;;24.70;75.80;;;;;;5077710;28;20044;-81
2024/01/20 11:06:48;;;;;;;13.05;2.47;;;24.70;75.90;;;;;;5080202;28;20091;-84
2024/01/20 11:09:22;;;;;;;14.80;2.78;;;24.80;75.90;;;;;;5072867;28;20084;-81
2024/01/20 11:12:09;;;;;;;10.77;2.22;;;24.70;75.90;;;;;;5076690;28;20048;-85
2024/01/20 11:14:37;;;;;;;15.38;2.22;;;24.70;75.90;;;;;;5077619;28;20039;-81
2024/01/20 11:17:15;;;;;;;12.18;2.22;;;24.70;76.00;;;;;;5063120;28;20029;-84
2024/01/20 11:19:42;;;;;;;9.35;2.50;;;24.70;75.90;;;;;;5055439;28;20032;-80
2024/01/20 11:22:32;;;;;;;7.03;2.20;;;24.70;75.90;;;;;;5046628;28;20051;-83
2024/01/20 11:25:05;;;;;;;9.65;2.40;;;24.70;76.00;;;;;;5058161;28;20041;-81
2024/01/20 11:27:46;;;;;;;7.82;2.05;;;24.70;76.00;;;;;;5050896;28;20050;-84
2024/01/20 11:30:14;;;;;;;11.23;1.90;;;24.60;76.00;;;;;;5057812;28;20021;-81
2024/01/20 11:32:41;;;;;;;12.23;2.10;;;24.70;76.10;;;;;;5048995;28;20064;-80
2024/01/20 11:35:09;;;;;;;10.25;1.70;;;24.70;76.00;;;;;;5052500;28;20032;-81
2024/01/20 11:37:37;;;;;;;13.43;2.42;;;24.70;75.90;;;;;;5070191;28;20025;-83
2024/01/20 11:40:08;;;;;;;9.35;1.67;;;24.70;76.00;;;;;;5043613;28;20041;-88
2024/01/20 11:42:39;;;;;;;7.65;1.88;;;24.60;76.10;;;;;;5060103;28;20031;-85
2024/01/20 11:45:07;;;;;;;12.48;2.35;;;24.70;76.30;;;;;;5059718;28;20072;-86
2024/01/20 11:47:34;;;;;;;13.13;2.88;;;24.60;76.10;;;;;;5055821;28;20025;-81
2024/01/20 11:50:02;;;;;;;9.88;2.25;;;24.60;76.10;;;;;;5062943;28;20047;-89
2024/01/20 11:52:30;;;;;;;6.47;2.20;;;24.60;76.30;;;;;;5060524;28;20353;-81
2024/01/20 11:54:57;;;;;;;10.75;2.20;;;24.60;76.30;;;;;;5060254;28;20652;-81
2024/01/20 11:57:27;;;;;;;10.85;2.90;;;24.60;76.30;;;;;;5053908;28;20349;-82
2024/01/20 11:59:54;;;;;;;8.05;2.33;;;24.70;76.30;;;;;;5051998;28;20021;-81
2024/01/20 12:02:22;;;;;;;6.20;1.90;;;24.70;76.30;;;;;;5065755;28;20107;-81
2024/01/20 12:04:50;;;;;;;8.50;2.25;;;24.70;76.10;;;;;;5063223;28;20083;-80
2024/01/20 12:07:18;;;;;;;10.30;2.28;;;24.70;76.10;;;;;;5055998;28;20107;-81
2024/01/20 12:09:49;;;;;;;11.15;2.83;;;24.60;76.10;;;;;;5068390;28;20056;-81
2024/01/20 12:12:18;;;;;;;7.63;1.85;;;24.60;76.30;;;;;;5066354;28;20087;-79
2024/01/20 12:14:45;;;;;;;10.88;2.10;;;24.60;76.40;;;;;;5056227;28;20494;-82
2024/01/20 12:17:14;;;;;;;11.82;2.63;;;24.60;76.60;;;;;;5076234;28;20044;-80
2024/01/20 12:19:42;;;;;;;11.70;2.35;;;24.60;76.50;;;;;;5071580;28;20033;-80
2024/01/20 12:22:12;;;;;;;8.93;2.80;;;24.60;76.80;;;;;;5082148;28;20037;-81
2024/01/20 12:24:44;;;;;;;9.65;2.20;;;24.60;76.70;;;;;;5070477;28;20466;-83
2024/01/20 12:27:12;;;;;;;14.48;2.30;;;24.50;76.70;;;;;;5073329;28;20031;-80
2024/01/20 12:29:39;;;;;;;15.65;2.78;;;24.50;77.00;;;;;;5074082;28;20403;-82
2024/01/20 12:32:08;;;;;;;9.85;2.47;;;24.60;76.90;;;;;;5080872;28;20107;-80
2024/01/20 12:34:35;;;;;;;7.65;2.00;;;24.50;76.90;;;;;;5084701;28;20028;-80
2024/01/20 12:37:02;;;;;;;7.30;1.80;;;24.50;77.00;;;;;;5082787;28;20501;-81
2024/01/20 12:39:30;;;;;;;13.77;3.17;;;24.50;77.10;;;;;;5090750;28;20028;-81
2024/01/20 12:41:57;;;;;;;10.68;2.53;;;24.50;76.90;;;;;;5089419;28;20039;-80
2024/01/20 12:44:24;;;;;;;10.00;2.10;;;24.50;77.10;;;;;;5091410;28;20032;-81
2024/01/20 12:46:52;;;;;;;9.95;2.30;;;24.50;77.10;;;;;;5088133;28;20483;-81
2024/01/20 12:49:20;;;;;;;8.07;2.13;;;24.50;77.20;;;;;;5074705;28;20471;-81